createdAt,value
2019-04-29T00:00:44.728Z,4.37
2019-04-29T00:03:13.264Z,3.67
2019-04-29T00:05:41.714Z,4.70
2019-04-29T00:08:10.259Z,6.07
2019-04-29T00:10:38.892Z,3.73
2019-04-29T00:13:07.412Z,5.03
2019-04-29T00:15:43.367Z,4.80
2019-04-29T00:18:16.249Z,2.90
2019-04-29T00:20:49.399Z,3.40
2019-04-29T00:23:17.909Z,3.97
2019-04-29T00:25:46.435Z,2.93
2019-04-29T00:28:15.248Z,3.27
2019-04-29T00:30:43.952Z,4.33
2019-04-29T00:33:12.494Z,3.60
2019-04-29T00:35:41.252Z,3.20
2019-04-29T00:38:17.358Z,2.60
2019-04-29T00:41:03.685Z,5.60
2019-04-29T00:43:46.057Z,2.50
2019-04-29T00:46:14.525Z,3.20
2019-04-29T00:48:43.062Z,3.03
2019-04-29T00:51:11.582Z,3.53
2019-04-29T00:53:40.416Z,3.03
2019-04-29T00:56:09.243Z,2.93
2019-04-29T00:58:37.702Z,1.77
2019-04-29T01:01:11.133Z,3.70
2019-04-29T01:03:41.217Z,4.40
2019-04-29T01:06:10.235Z,2.57
2019-04-29T01:08:38.769Z,2.33
2019-04-29T01:11:07.328Z,2.80
2019-04-29T01:13:35.775Z,3.60
2019-04-29T01:16:04.333Z,2.10
2019-04-29T01:18:32.869Z,3.33
2019-04-29T01:21:01.357Z,3.50
2019-04-29T01:23:29.841Z,2.67
2019-04-29T01:26:00.420Z,2.60
2019-04-29T01:28:30.525Z,2.97
2019-04-29T01:31:08.211Z,3.30
2019-04-29T01:33:36.673Z,3.50
2019-04-29T01:36:21.975Z,4.50
2019-04-29T01:38:52.069Z,3.57
2019-04-29T01:41:37.741Z,3.40
2019-04-29T01:44:07.835Z,4.57
2019-04-29T01:46:36.273Z,3.87
2019-04-29T01:49:04.893Z,3.23
2019-04-29T01:51:33.342Z,3.73
2019-04-29T01:54:01.885Z,3.47
2019-04-29T01:56:30.344Z,3.13
2019-04-29T01:58:58.812Z,5.70
2019-04-29T02:01:27.263Z,4.93
2019-04-29T02:03:55.731Z,4.83
2019-04-29T02:06:24.248Z,4.80
2019-04-29T02:08:54.116Z,6.80
2019-04-29T02:11:22.640Z,3.77
2019-04-29T02:13:51.081Z,4.43
2019-04-29T02:16:19.575Z,4.30
2019-04-29T02:18:48.018Z,5.63
2019-04-29T02:21:16.481Z,4.20
2019-04-29T02:23:46.677Z,4.10
2019-04-29T02:26:15.132Z,3.80
2019-04-29T02:28:43.594Z,4.73
2019-04-29T02:31:30.009Z,4.67
2019-04-29T02:33:58.470Z,4.73
2019-04-29T02:36:29.918Z,4.50
2019-04-29T02:39:04.881Z,4.17
2019-04-29T02:41:35.370Z,4.60
2019-04-29T02:44:05.607Z,4.03
2019-04-29T02:46:34.084Z,6.13
2019-04-29T02:49:02.550Z,4.70
2019-04-29T02:51:48.020Z,6.23
2019-04-29T02:54:17.067Z,5.80
2019-04-29T02:56:49.894Z,7.13
2019-04-29T02:59:36.639Z,5.27
2019-04-29T03:02:10.010Z,3.80
2019-04-29T03:04:52.531Z,4.53
2019-04-29T03:07:21.796Z,4.63
2019-04-29T03:09:50.434Z,4.73
2019-04-29T03:12:18.980Z,5.03
2019-04-29T03:14:47.562Z,5.37
2019-04-29T03:17:18.957Z,5.37
2019-04-29T03:20:04.062Z,4.27
2019-04-29T03:22:32.748Z,6.00
2019-04-29T03:25:01.533Z,5.77
2019-04-29T03:27:30.051Z,5.23
2019-04-29T03:29:58.527Z,5.27
2019-04-29T03:32:26.997Z,6.23
2019-04-29T03:34:55.558Z,5.50
2019-04-29T03:37:24.334Z,6.37
2019-04-29T03:39:52.876Z,4.73
2019-04-29T03:42:21.332Z,5.37
2019-04-29T03:44:50.043Z,5.83
2019-04-29T03:47:19.195Z,9.30
2019-04-29T03:49:47.858Z,6.60
2019-04-29T03:52:16.389Z,8.13
2019-04-29T03:54:44.856Z,6.13
2019-04-29T03:57:14.798Z,7.73
2019-04-29T03:59:43.266Z,6.03
2019-04-29T04:02:16.018Z,7.10
2019-04-29T04:04:46.137Z,7.63
2019-04-29T04:07:28.259Z,6.07
2019-04-29T04:09:56.744Z,8.57
2019-04-29T04:12:25.210Z,8.10
2019-04-29T04:14:53.754Z,6.57
2019-04-29T04:17:40.464Z,6.23
2019-04-29T04:20:09.439Z,7.40
2019-04-29T04:22:49.738Z,6.70
2019-04-29T04:25:18.531Z,6.47
2019-04-29T04:27:48.009Z,6.63
2019-04-29T04:30:17.558Z,8.47
2019-04-29T04:32:46.428Z,8.00
2019-04-29T04:35:15.961Z,8.53
2019-04-29T04:37:44.551Z,7.80
2019-04-29T04:40:15.671Z,6.63
2019-04-29T04:42:44.115Z,7.10
2019-04-29T04:45:13.224Z,5.83
2019-04-29T04:47:41.776Z,7.43
2019-04-29T04:50:10.767Z,7.10
2019-04-29T04:52:39.244Z,8.30
2019-04-29T04:55:08.293Z,6.90
2019-04-29T04:57:37.088Z,8.63
2019-04-29T05:00:22.760Z,9.60
2019-04-29T05:02:51.245Z,8.73
2019-04-29T05:05:20.035Z,7.00
2019-04-29T05:07:48.522Z,8.67
2019-04-29T05:10:16.989Z,7.77
2019-04-29T05:12:45.463Z,8.03
2019-04-29T05:15:14.182Z,7.80
2019-04-29T05:17:42.648Z,7.93
2019-04-29T05:20:11.157Z,9.13
2019-04-29T05:22:41.274Z,7.40
2019-04-29T05:25:09.991Z,9.57
2019-04-29T05:27:38.445Z,10.50
2019-04-29T05:30:07.597Z,9.43
2019-04-29T05:32:36.111Z,12.07
2019-04-29T05:35:07.967Z,11.50
2019-04-29T05:37:43.771Z,10.87
2019-04-29T05:40:14.036Z,11.63
2019-04-29T05:42:42.841Z,10.30
2019-04-29T05:45:13.189Z,9.23
2019-04-29T05:47:43.344Z,10.33
2019-04-29T05:50:31.810Z,9.27
2019-04-29T05:53:01.931Z,10.03
2019-04-29T05:55:30.739Z,11.47
2019-04-29T05:58:11.281Z,12.17
2019-04-29T06:00:41.401Z,9.83
2019-04-29T06:03:09.893Z,10.43
2019-04-29T06:05:38.347Z,12.83
2019-04-29T06:08:06.887Z,13.13
2019-04-29T06:10:35.429Z,13.30
2019-04-29T06:13:03.988Z,12.40
2019-04-29T06:15:32.433Z,12.57
2019-04-29T06:18:00.881Z,13.13
2019-04-29T06:20:29.353Z,13.37
2019-04-29T06:22:58.172Z,12.27
2019-04-29T06:25:26.665Z,14.53
2019-04-29T06:27:55.208Z,14.73
2019-04-29T06:30:23.737Z,11.23
2019-04-29T06:32:52.224Z,11.70
2019-04-29T06:35:20.771Z,13.37
2019-04-29T06:37:49.231Z,12.50
2019-04-29T06:40:17.847Z,12.73
2019-04-29T06:42:49.426Z,11.03
2019-04-29T06:45:16.776Z,13.30
2019-04-29T06:47:45.322Z,12.60
2019-04-29T06:50:14.045Z,12.90
2019-04-29T06:52:42.499Z,16.03
2019-04-29T06:55:11.039Z,14.33
2019-04-29T06:57:39.485Z,14.77
2019-04-29T07:00:08.871Z,13.43
2019-04-29T07:02:37.678Z,14.90
2019-04-29T07:05:07.299Z,14.57
2019-04-29T07:07:35.841Z,16.40
2019-04-29T07:10:05.345Z,14.43
2019-04-29T07:12:33.886Z,15.83
2019-04-29T07:15:02.860Z,13.70
2019-04-29T07:17:31.416Z,13.33
2019-04-29T07:20:02.158Z,13.33
2019-04-29T07:22:31.222Z,12.90
2019-04-29T07:24:59.907Z,14.13
2019-04-29T07:27:28.368Z,14.60
2019-04-29T07:29:56.837Z,13.07
2019-04-29T07:32:25.316Z,11.83
2019-04-29T07:34:53.799Z,13.13
2019-04-29T07:37:22.347Z,12.93
2019-04-29T07:39:50.816Z,14.67
2019-04-29T07:42:19.350Z,13.77
2019-04-29T07:45:05.656Z,13.77
2019-04-29T07:47:34.920Z,13.07
2019-04-29T07:50:04.376Z,12.63
2019-04-29T07:52:32.881Z,16.40
2019-04-29T07:55:01.353Z,16.97
2019-04-29T07:57:29.841Z,14.40
2019-04-29T07:59:58.296Z,15.37
2019-04-29T08:02:26.784Z,11.70
2019-04-29T08:04:55.249Z,13.70
2019-04-29T08:07:25.063Z,14.13
2019-04-29T08:09:53.689Z,12.33
2019-04-29T08:12:23.011Z,12.87
2019-04-29T08:14:53.514Z,11.97
2019-04-29T08:17:23.263Z,11.53
2019-04-29T08:19:51.754Z,14.20
2019-04-29T08:22:22.784Z,12.00
2019-04-29T08:24:51.882Z,14.00
2019-04-29T08:27:21.066Z,13.47
2019-04-29T08:29:49.853Z,11.80
2019-04-29T08:32:18.300Z,12.03
2019-04-29T08:34:46.782Z,12.97
2019-04-29T08:37:15.455Z,12.57
2019-04-29T08:39:43.925Z,12.97
2019-04-29T08:42:14.123Z,15.13
2019-04-29T08:44:44.625Z,12.90
2019-04-29T08:47:17.815Z,14.30
2019-04-29T08:49:46.408Z,14.67
2019-04-29T08:52:15.040Z,12.90
2019-04-29T08:54:43.481Z,14.00
2019-04-29T08:57:12.321Z,12.90
2019-04-29T08:59:40.787Z,11.90
2019-04-29T09:02:10.260Z,11.90
2019-04-29T09:04:52.967Z,14.03
2019-04-29T09:07:12.648Z,14.67
2019-04-29T09:09:40.198Z,11.57
2019-04-29T09:12:08.679Z,11.83
2019-04-29T09:14:37.161Z,12.23
2019-04-29T09:17:19.584Z,12.10
2019-04-29T09:19:35.861Z,11.57
2019-04-29T09:22:06.052Z,10.87
2019-04-29T09:24:35.389Z,8.80
2019-04-29T09:27:11.426Z,12.50
2019-04-29T09:29:39.912Z,10.80
2019-04-29T09:32:08.441Z,11.37
2019-04-29T09:34:36.897Z,11.50
2019-04-29T09:37:05.527Z,10.47
2019-04-29T09:39:43.355Z,10.23
2019-04-29T09:42:24.159Z,8.80
2019-04-29T09:45:24.336Z,9.77
2019-04-29T09:47:52.143Z,9.27
2019-04-29T09:50:20.677Z,9.60
2019-04-29T09:52:49.219Z,7.83
2019-04-29T09:55:19.215Z,11.60
2019-04-29T09:57:47.687Z,10.03
2019-04-29T10:00:19.284Z,8.90
2019-04-29T10:02:55.471Z,11.23
2019-04-29T10:05:25.582Z,10.67
2019-04-29T10:07:54.050Z,8.50
2019-04-29T10:10:22.536Z,7.93
2019-04-29T10:12:53.865Z,13.70
2019-04-29T10:15:23.259Z,10.80
2019-04-29T10:18:08.731Z,8.93
2019-04-29T10:20:38.817Z,9.67
2019-04-29T10:23:07.654Z,9.50
2019-04-29T10:25:36.255Z,8.57
2019-04-29T10:28:05.460Z,12.17
2019-04-29T10:30:34.015Z,8.57
2019-04-29T10:33:02.521Z,8.17
2019-04-29T10:35:30.977Z,9.87
2019-04-29T10:38:02.791Z,9.73
2019-04-29T10:40:46.492Z,10.77
2019-04-29T10:43:28.907Z,8.40
2019-04-29T10:46:04.843Z,10.23
2019-04-29T10:48:35.111Z,10.70
2019-04-29T10:51:05.123Z,9.87
2019-04-29T10:53:34.119Z,8.57
2019-04-29T10:56:05.733Z,8.70
2019-04-29T10:58:35.558Z,8.47
2019-04-29T11:01:42.399Z,6.93
2019-04-29T11:04:10.929Z,8.13
2019-04-29T11:06:39.457Z,7.87
2019-04-29T11:09:14.453Z,6.87
2019-04-29T11:11:44.282Z,10.60
2019-04-29T11:14:12.750Z,6.83
2019-04-29T11:16:46.393Z,9.63
2019-04-29T11:19:11.471Z,7.57
2019-04-29T11:21:39.954Z,8.57
2019-04-29T11:24:19.450Z,13.03
2019-04-29T11:26:49.914Z,10.90
2019-04-29T11:29:22.019Z,7.37
2019-04-29T11:31:54.162Z,8.33
2019-04-29T11:34:24.560Z,8.63
2019-04-29T11:36:53.103Z,8.70
2019-04-29T11:39:21.741Z,6.73
2019-04-29T11:41:54.279Z,5.40
2019-04-29T11:44:21.840Z,8.57
2019-04-29T11:46:50.982Z,6.43
2019-04-29T11:49:21.395Z,10.00
2019-04-29T11:52:08.635Z,8.30
2019-04-29T11:54:20.195Z,8.90
2019-04-29T11:56:48.650Z,6.73
2019-04-29T11:59:22.243Z,10.33
2019-04-29T12:01:53.507Z,6.43
2019-04-29T12:04:28.727Z,9.97
2019-04-29T12:06:58.108Z,8.63
2019-04-29T12:09:30.422Z,7.10
2019-04-29T12:11:57.249Z,7.37
2019-04-29T12:14:38.051Z,4.93
2019-04-29T12:17:26.660Z,5.97
2019-04-29T12:20:05.708Z,6.43
2019-04-29T12:22:47.388Z,6.40
2019-04-29T12:25:06.550Z,9.67
2019-04-29T12:27:35.027Z,10.43
2019-04-29T12:30:07.445Z,7.73
2019-04-29T12:32:43.342Z,7.00
2019-04-29T12:35:12.293Z,6.33
2019-04-29T12:37:51.464Z,7.33
2019-04-29T12:40:21.635Z,7.37
2019-04-29T12:42:55.298Z,7.27
2019-04-29T12:45:25.515Z,6.80
2019-04-29T12:47:54.145Z,9.03
2019-04-29T12:50:23.156Z,6.57
2019-04-29T12:52:51.887Z,8.10
2019-04-29T12:55:43.007Z,9.57
2019-04-29T12:57:55.142Z,7.17
2019-04-29T13:00:25.263Z,9.73
2019-04-29T13:03:01.915Z,9.73
2019-04-29T13:05:32.179Z,11.37
2019-04-29T13:08:02.275Z,9.07
2019-04-29T13:10:42.543Z,11.23
2019-04-29T13:13:08.941Z,8.87
2019-04-29T13:15:39.422Z,7.20
2019-04-29T13:18:13.477Z,8.03
2019-04-29T13:20:41.610Z,10.23
2019-04-29T13:23:17.479Z,10.33
2019-04-29T13:25:40.498Z,8.60
2019-04-29T13:28:09.028Z,8.00
2019-04-29T13:30:37.465Z,9.20
2019-04-29T13:33:15.938Z,6.47
2019-04-29T13:35:36.489Z,6.83
2019-04-29T13:38:05.212Z,7.53
2019-04-29T13:40:37.826Z,9.53
2019-04-29T13:43:04.105Z,7.20
2019-04-29T13:45:37.921Z,6.67
2019-04-29T13:48:09.180Z,6.63
2019-04-29T13:50:45.123Z,5.30
2019-04-29T13:53:16.599Z,6.03
2019-04-29T13:55:49.650Z,5.50
2019-04-29T13:58:14.471Z,5.83
2019-04-29T14:00:44.575Z,4.97
2019-04-29T14:03:14.701Z,6.50
2019-04-29T14:05:43.177Z,11.57
2019-04-29T14:08:11.945Z,8.13
2019-04-29T14:10:40.407Z,8.37
2019-04-29T14:13:13.453Z,8.67
2019-04-29T14:15:40.498Z,7.60
2019-04-29T14:18:11.636Z,8.47
2019-04-29T14:20:39.329Z,6.37
2019-04-29T14:23:07.768Z,7.77
2019-04-29T14:25:36.261Z,11.93
2019-04-29T14:28:04.846Z,7.70
2019-04-29T14:30:38.813Z,6.80
2019-04-29T14:33:03.935Z,6.63
2019-04-29T14:35:43.777Z,8.83
2019-04-29T14:38:13.242Z,6.17
2019-04-29T14:40:42.805Z,7.50
2019-04-29T14:43:32.129Z,7.37
2019-04-29T14:46:04.425Z,7.57
2019-04-29T14:48:42.118Z,6.90
2019-04-29T14:51:04.925Z,7.87
2019-04-29T14:53:33.393Z,6.93
2019-04-29T14:56:01.863Z,7.33
2019-04-29T14:58:30.399Z,7.53
2019-04-29T15:01:17.010Z,7.27
2019-04-29T15:03:59.297Z,8.73
2019-04-29T15:06:28.919Z,7.37
2019-04-29T15:08:57.833Z,7.27
2019-04-29T15:11:31.939Z,7.83
2019-04-29T15:14:00.445Z,7.77
2019-04-29T15:16:45.913Z,8.63
2019-04-29T15:19:32.571Z,8.13
2019-04-29T15:22:02.726Z,6.60
2019-04-29T15:24:34.005Z,5.57
2019-04-29T15:27:01.411Z,6.20
2019-04-29T15:29:29.857Z,6.80
2019-04-29T15:31:58.335Z,5.10
2019-04-29T15:34:26.782Z,6.47
2019-04-29T15:36:55.254Z,6.27
2019-04-29T15:39:25.330Z,7.43
2019-04-29T15:41:54.786Z,6.07
2019-04-29T15:44:23.896Z,7.83
2019-04-29T15:46:52.527Z,7.00
2019-04-29T15:49:24.730Z,6.73
2019-04-29T15:51:51.164Z,7.53
2019-04-29T15:54:19.622Z,7.17
2019-04-29T15:56:48.101Z,8.23
2019-04-29T15:59:16.692Z,7.17
2019-04-29T16:01:45.163Z,8.70
2019-04-29T16:04:15.280Z,7.07
2019-04-29T16:06:45.627Z,7.00
2019-04-29T16:09:15.737Z,11.50
2019-04-29T16:11:58.118Z,10.20
2019-04-29T16:14:26.671Z,10.07
2019-04-29T16:16:55.457Z,10.60
2019-04-29T16:19:23.930Z,10.40
2019-04-29T16:21:52.534Z,14.77
2019-04-29T16:24:37.451Z,23.53
2019-04-29T16:26:53.715Z,23.57
2019-04-29T16:29:21.671Z,17.47
2019-04-29T16:31:54.968Z,18.10
2019-04-29T16:34:20.335Z,13.97
2019-04-29T16:36:49.893Z,13.40
2019-04-29T16:39:19.049Z,10.33
2019-04-29T16:41:58.124Z,10.73
2019-04-29T16:44:34.783Z,7.63
2019-04-29T16:46:52.497Z,8.60
2019-04-29T16:49:21.147Z,7.33
2019-04-29T16:51:53.699Z,11.33
2019-04-29T16:54:24.626Z,11.43
2019-04-29T16:56:49.993Z,11.03
2019-04-29T16:59:18.528Z,10.00
2019-04-29T17:01:47.064Z,10.47
2019-04-29T17:04:15.529Z,10.10
2019-04-29T17:07:10.664Z,10.57
2019-04-29T17:09:32.644Z,9.67
2019-04-29T17:12:02.244Z,11.00
2019-04-29T17:14:30.925Z,12.37
2019-04-29T17:16:59.487Z,11.97
2019-04-29T17:19:28.360Z,10.87
2019-04-29T17:22:23.727Z,12.07
2019-04-29T17:24:27.675Z,8.97
2019-04-29T17:26:58.149Z,9.63
2019-04-29T17:29:39.363Z,9.37
2019-04-29T17:32:12.825Z,9.10
2019-04-29T17:34:57.964Z,8.70
2019-04-29T17:37:12.607Z,8.90
2019-04-29T17:39:41.074Z,9.27
2019-04-29T17:42:09.553Z,8.47
2019-04-29T17:44:45.545Z,9.23
2019-04-29T17:47:32.023Z,9.60
2019-04-29T17:50:06.623Z,7.47
2019-04-29T17:52:35.274Z,7.80
2019-04-29T17:55:10.016Z,9.47
2019-04-29T17:57:40.153Z,10.03
2019-04-29T18:00:11.404Z,8.43
2019-04-29T18:03:00.894Z,7.93
2019-04-29T18:05:52.282Z,8.77
2019-04-29T18:08:05.751Z,8.00
2019-04-29T18:10:38.613Z,9.00
2019-04-29T18:13:06.588Z,8.70
2019-04-29T18:15:47.172Z,10.20
2019-04-29T18:18:12.381Z,11.63
2019-04-29T18:20:59.558Z,9.33
2019-04-29T18:23:32.845Z,12.07
2019-04-29T18:26:05.779Z,10.10
2019-04-29T18:28:35.822Z,9.97
2019-04-29T18:31:06.591Z,11.33
2019-04-29T18:33:35.356Z,10.27
2019-04-29T18:36:06.817Z,11.07
2019-04-29T18:38:35.007Z,9.53
2019-04-29T18:41:03.594Z,9.13
2019-04-29T18:43:32.034Z,9.93
2019-04-29T18:46:00.502Z,9.80
2019-04-29T18:48:28.966Z,10.67
2019-04-29T18:50:57.448Z,9.13
2019-04-29T18:53:25.907Z,8.07
2019-04-29T18:55:55.049Z,9.83
2019-04-29T18:58:24.996Z,10.10
2019-04-29T19:00:56.204Z,9.67
2019-04-29T19:03:29.796Z,8.57
2019-04-29T19:05:57.534Z,10.77
2019-04-29T19:08:29.020Z,7.70
2019-04-29T19:10:56.853Z,9.00
2019-04-29T19:13:26.064Z,9.63
2019-04-29T19:15:58.786Z,6.47
2019-04-29T19:18:25.489Z,8.80
2019-04-29T19:20:54.857Z,10.57
2019-04-29T19:23:29.236Z,14.00
2019-04-29T19:25:54.759Z,7.03
2019-04-29T19:28:30.921Z,6.83
2019-04-29T19:30:56.052Z,6.33
2019-04-29T19:33:25.239Z,6.63
2019-04-29T19:35:55.441Z,6.87
2019-04-29T19:38:25.349Z,7.00
2019-04-29T19:40:54.033Z,6.27
2019-04-29T19:43:22.494Z,6.37
2019-04-29T19:45:50.941Z,6.83
2019-04-29T19:48:22.562Z,6.07
2019-04-29T19:51:06.438Z,6.07
2019-04-29T19:53:19.801Z,9.13
2019-04-29T19:55:48.357Z,7.80
2019-04-29T19:58:17.414Z,8.53
2019-04-29T20:00:47.581Z,7.37
2019-04-29T20:03:23.697Z,8.07
2019-04-29T20:05:48.959Z,6.03
2019-04-29T20:08:37.458Z,5.90
2019-04-29T20:10:51.574Z,6.63
2019-04-29T20:13:18.920Z,6.27
2019-04-29T20:16:12.585Z,6.50
2019-04-29T20:18:58.837Z,6.47
2019-04-29T20:21:24.707Z,6.93
2019-04-29T20:23:52.906Z,6.87
2019-04-29T20:27:19.007Z,8.07
2019-04-29T20:28:51.126Z,7.57
2019-04-29T20:31:22.360Z,7.77
2019-04-29T20:33:49.603Z,8.20
2019-04-29T20:36:32.994Z,8.70
2019-04-29T20:38:48.687Z,8.67
2019-04-29T20:41:24.970Z,9.60
2019-04-29T20:43:47.786Z,7.43
2019-04-29T20:46:18.019Z,9.33
2019-04-29T20:48:50.438Z,8.27
2019-04-29T20:51:17.063Z,7.83
2019-04-29T20:53:47.783Z,7.47
2019-04-29T20:56:23.726Z,8.77
2019-04-29T20:58:46.973Z,7.30
2019-04-29T21:01:17.361Z,7.27
2019-04-29T21:03:51.113Z,8.23
2019-04-29T21:06:16.414Z,8.67
2019-04-29T21:08:50.888Z,7.07
2019-04-29T21:11:21.075Z,7.77
2019-04-29T21:14:03.329Z,7.57
2019-04-29T21:16:33.444Z,9.40
2019-04-29T21:19:08.508Z,8.63
2019-04-29T21:21:36.788Z,8.97
2019-04-29T21:24:14.168Z,8.77
2019-04-29T21:26:37.883Z,7.77
2019-04-29T21:29:10.763Z,9.53
2019-04-29T21:31:37.437Z,9.73
2019-04-29T21:34:06.050Z,8.93
2019-04-29T21:36:42.409Z,8.23
2019-04-29T21:39:12.565Z,9.73
2019-04-29T21:41:42.713Z,8.73
2019-04-29T21:44:11.191Z,9.03
2019-04-29T21:46:39.719Z,9.90
2019-04-29T21:49:11.665Z,10.20
2019-04-29T21:51:41.702Z,9.33
2019-04-29T21:54:09.667Z,9.40
2019-04-29T21:56:39.742Z,9.80
2019-04-29T21:59:11.951Z,9.57
2019-04-29T22:01:38.967Z,10.33
2019-04-29T22:04:07.462Z,9.80
2019-04-29T22:06:35.927Z,9.67
2019-04-29T22:09:07.756Z,10.40
2019-04-29T22:11:43.092Z,9.50
2019-04-29T22:14:09.912Z,10.93
2019-04-29T22:16:36.835Z,12.50
2019-04-29T22:19:05.334Z,13.10
2019-04-29T22:21:35.872Z,12.87
2019-04-29T22:24:06.183Z,12.73
2019-04-29T22:26:35.057Z,13.50
2019-04-29T22:29:03.891Z,14.33
2019-04-29T22:31:35.744Z,12.10
2019-04-29T22:34:03.075Z,14.47
2019-04-29T22:36:31.800Z,13.53
2019-04-29T22:39:00.336Z,14.83
2019-04-29T22:41:42.249Z,16.03
2019-04-29T22:44:16.758Z,14.00
2019-04-29T22:46:44.774Z,15.10
2019-04-29T22:49:12.893Z,12.87
2019-04-29T22:51:41.402Z,12.90
2019-04-29T22:54:09.850Z,13.27
2019-04-29T22:56:40.538Z,14.50
2019-04-29T22:59:08.532Z,15.40
2019-04-29T23:01:42.061Z,14.60
2019-04-29T23:04:09.620Z,13.30
2019-04-29T23:06:39.898Z,16.07
2019-04-29T23:09:11.825Z,13.40
2019-04-29T23:11:39.361Z,17.40
2019-04-29T23:14:10.081Z,14.63
2019-04-29T23:16:38.439Z,14.63
2019-04-29T23:19:09.811Z,15.23
2019-04-29T23:21:50.610Z,13.53
2019-04-29T23:24:26.483Z,13.77
2019-04-29T23:26:55.033Z,14.33
2019-04-29T23:29:25.408Z,15.13
2019-04-29T23:31:55.392Z,14.83
2019-04-29T23:34:27.777Z,15.50
2019-04-29T23:36:54.530Z,15.00
2019-04-29T23:39:24.614Z,15.07
2019-04-29T23:41:55.370Z,15.23
2019-04-29T23:44:23.705Z,14.13
2019-04-29T23:46:52.162Z,14.07
2019-04-29T23:49:20.721Z,11.93
2019-04-29T23:51:49.187Z,13.50
2019-04-29T23:54:17.643Z,11.13
2019-04-29T23:57:03.087Z,13.03
2019-04-29T23:59:35.118Z,12.50
